HBBA/BJM METAR and TAF weather

Enter ICAO airport designator
Station Type Date Time Source
HBBA METAR 2021/04/14 15:00 UTC NOAA

HBBA 141500Z 18005KT 9999 RA FEW020 FEW025 BKN100 26/21 Q1013 NOSIG


Station Type Date Time Source
HBBA Decoded METAR 2021/04/14 15:00 UTC NOAA

Bujumbura, Burundi (HBBA) 03-19S 029-19E 783M
Apr 14, 2021 - 11:00 AM EDT / 2021.04.14 1500 UTC
Wind: from the S (180 degrees) at 6 MPH (5 KT):0
Visibility: greater than 7 mile(s):0
Sky conditions: mostly cloudy
Weather: rain
Temperature: 78 F (26 C)
Dew Point: 69 F (21 C)
Relative Humidity: 73%
Pressure (altimeter): 29.91 in. Hg (1013 hPa)
ob: HBBA 141500Z 18005KT 9999 RA FEW020 FEW025 BKN100 26/21 Q1013 NOSIG
cycle: 15

Station Type Date Time Source
HBBA TAF 2021/04/14 18:30 UTC NOAA

TAF HBBA 141700Z 1418/1524 18010KT 9999 FEW030 SCT100
BECMG 1502/1504 36005KT CAVOK
BECMG 1508/1510 18010G20KT 9999 FEW030 BKN100
BECMG 1520/1521 00000KT 9999 FEW025 SCT090

Example: see airport list